createdAt,value
2023-04-16T00:01:49.722Z,27.70
2023-04-16T00:04:21.706Z,27.17
2023-04-16T00:06:53.308Z,27.17
2023-04-16T00:09:25.275Z,25.57
2023-04-16T00:11:58.980Z,26.80
2023-04-16T00:14:31.043Z,25.67
2023-04-16T00:17:03.028Z,26.43
2023-04-16T00:19:34.666Z,27.20
2023-04-16T00:22:06.593Z,26.00
2023-04-16T00:24:38.541Z,26.07
2023-04-16T00:27:11.478Z,26.50
2023-04-16T00:29:43.319Z,27.07
2023-04-16T00:32:15.543Z,27.30
2023-04-16T00:34:47.195Z,27.13
2023-04-16T00:37:18.967Z,26.60
2023-04-16T00:39:51.298Z,28.20
2023-04-16T00:42:24.545Z,28.10
2023-04-16T00:44:56.433Z,27.43
2023-04-16T00:47:28.923Z,27.40
2023-04-16T00:50:00.541Z,28.47
2023-04-16T00:52:33.551Z,28.90
2023-04-16T00:55:05.695Z,28.67
2023-04-16T00:57:38.597Z,29.17
2023-04-16T01:00:10.862Z,29.57
2023-04-16T01:02:43.432Z,29.17
2023-04-16T01:05:15.415Z,30.03
2023-04-16T01:07:47.217Z,30.60
2023-04-16T01:10:19.044Z,31.00
2023-04-16T01:12:51.976Z,30.60
2023-04-16T01:15:23.926Z,29.87
2023-04-16T01:17:56.128Z,30.40
2023-04-16T01:20:27.850Z,31.03
2023-04-16T01:23:01.035Z,29.80
2023-04-16T01:25:32.920Z,30.67
2023-04-16T01:28:04.800Z,30.07
2023-04-16T01:30:36.645Z,30.93
2023-04-16T01:33:10.192Z,30.33
2023-04-16T01:35:42.284Z,30.47
2023-04-16T01:38:15.958Z,30.20
2023-04-16T01:40:47.601Z,28.30
2023-04-16T01:43:19.450Z,30.33
2023-04-16T01:45:51.338Z,30.80
2023-04-16T01:48:23.204Z,30.57
2023-04-16T01:50:55.061Z,30.77
2023-04-16T01:53:28.260Z,30.37
2023-04-16T01:56:00.189Z,31.93
2023-04-16T01:58:35.412Z,30.40
2023-04-16T02:01:08.395Z,29.10
2023-04-16T02:03:43.368Z,28.50
2023-04-16T02:06:15.011Z,30.43
2023-04-16T02:08:48.069Z,31.23
2023-04-16T02:11:19.869Z,32.03
2023-04-16T02:13:51.702Z,30.40
2023-04-16T02:16:24.005Z,31.07
2023-04-16T02:18:55.993Z,31.87
2023-04-16T02:21:27.846Z,30.90
2023-04-16T02:24:01.017Z,30.43
2023-04-16T02:26:33.199Z,32.23
2023-04-16T02:29:04.814Z,30.80
2023-04-16T02:31:36.749Z,30.23
2023-04-16T02:34:08.478Z,32.07
2023-04-16T02:36:40.395Z,32.63
2023-04-16T02:39:13.525Z,32.47
2023-04-16T02:41:45.535Z,32.20
2023-04-16T02:44:17.092Z,32.10
2023-04-16T02:46:49.061Z,32.70
2023-04-16T02:49:20.842Z,33.97
2023-04-16T02:51:52.665Z,32.07
2023-04-16T02:54:25.667Z,31.73
2023-04-16T02:56:57.801Z,32.63
2023-04-16T02:59:29.366Z,32.33
2023-04-16T03:02:01.247Z,30.87
2023-04-16T03:04:33.677Z,32.37
2023-04-16T03:07:05.283Z,33.50
2023-04-16T03:09:38.211Z,33.50
2023-04-16T03:12:11.037Z,32.10
2023-04-16T03:14:42.951Z,33.17
2023-04-16T03:17:14.778Z,32.93
2023-04-16T03:19:46.588Z,33.80
2023-04-16T03:22:18.719Z,32.53
2023-04-16T03:24:52.549Z,33.97
2023-04-16T03:27:24.180Z,31.63
2023-04-16T03:29:55.985Z,32.60
2023-04-16T03:32:27.899Z,32.33
2023-04-16T03:34:59.897Z,30.27
2023-04-16T03:37:31.949Z,32.00
2023-04-16T03:40:05.441Z,32.07
2023-04-16T03:42:37.028Z,31.40
2023-04-16T03:45:11.004Z,30.57
2023-04-16T03:47:42.936Z,31.97
2023-04-16T03:50:15.637Z,30.87
2023-04-16T03:52:49.342Z,32.10
2023-04-16T03:55:22.529Z,31.30
2023-04-16T03:57:54.424Z,32.03
2023-04-16T04:00:26.260Z,30.87
2023-04-16T04:02:58.399Z,30.00
2023-04-16T04:05:30.151Z,30.13
2023-04-16T04:08:02.080Z,31.17
2023-04-16T04:10:37.066Z,31.57
2023-04-16T04:13:10.459Z,32.00
2023-04-16T04:15:42.391Z,31.93
2023-04-16T04:18:14.414Z,30.90
2023-04-16T04:20:47.215Z,30.80
2023-04-16T04:23:19.069Z,30.47
2023-04-16T04:25:52.288Z,30.50
2023-04-16T04:28:24.260Z,32.80
2023-04-16T04:30:56.082Z,31.73
2023-04-16T04:33:28.051Z,32.13
2023-04-16T04:35:59.839Z,32.10
2023-04-16T04:38:31.758Z,33.30
2023-04-16T04:41:04.689Z,30.27
2023-04-16T04:43:36.626Z,30.70
2023-04-16T04:46:08.483Z,30.57
2023-04-16T04:48:40.429Z,30.23
2023-04-16T04:51:12.233Z,28.90
2023-04-16T04:53:44.073Z,30.40
2023-04-16T04:56:17.077Z,30.17
2023-04-16T04:58:50.694Z,29.07
2023-04-16T05:01:22.387Z,28.30
2023-04-16T05:03:54.262Z,29.07
2023-04-16T05:06:29.057Z,26.97
2023-04-16T05:09:01.536Z,27.83
2023-04-16T05:11:34.550Z,27.13
2023-04-16T05:14:06.392Z,26.23
2023-04-16T05:16:39.325Z,27.37
2023-04-16T05:19:11.545Z,27.40
2023-04-16T05:21:43.555Z,27.80
2023-04-16T05:24:15.366Z,25.43
2023-04-16T05:26:48.517Z,26.97
2023-04-16T05:29:20.449Z,26.73
2023-04-16T05:31:52.364Z,27.63
2023-04-16T05:34:24.234Z,27.80
2023-04-16T05:36:56.077Z,25.47
2023-04-16T05:39:28.069Z,25.43
2023-04-16T05:42:01.506Z,25.70
2023-04-16T05:44:33.077Z,24.97
2023-04-16T05:47:04.906Z,26.47
2023-04-16T05:49:37.312Z,26.60
2023-04-16T05:52:09.186Z,25.97
2023-04-16T05:54:41.028Z,25.17
2023-04-16T05:57:14.200Z,25.13
2023-04-16T05:59:46.100Z,25.60
2023-04-16T06:02:18.477Z,24.73
2023-04-16T06:04:50.778Z,25.83
2023-04-16T06:07:22.421Z,24.67
2023-04-16T06:09:54.305Z,25.30
2023-04-16T06:12:27.191Z,24.57
2023-04-16T06:14:59.057Z,24.97
2023-04-16T06:17:31.049Z,26.17
2023-04-16T06:20:02.862Z,24.73
2023-04-16T06:22:34.766Z,23.87
2023-04-16T06:25:06.718Z,25.47
2023-04-16T06:27:39.795Z,24.30
2023-04-16T06:30:16.325Z,25.33
2023-04-16T06:32:48.396Z,25.83
2023-04-16T06:35:20.569Z,25.73
2023-04-16T06:37:52.161Z,23.57
2023-04-16T06:40:24.179Z,23.73
2023-04-16T06:42:57.194Z,23.77
2023-04-16T06:45:29.053Z,24.10
2023-04-16T06:48:01.454Z,24.20
2023-04-16T06:50:33.511Z,23.27
2023-04-16T06:53:05.356Z,22.47
2023-04-16T06:55:37.179Z,21.93
2023-04-16T06:58:10.130Z,22.87
2023-04-16T07:00:42.107Z,22.47
2023-04-16T07:03:14.108Z,22.37
2023-04-16T07:05:45.839Z,22.63
2023-04-16T07:08:17.647Z,23.47
2023-04-16T07:10:49.524Z,21.90
2023-04-16T07:13:22.547Z,22.17
2023-04-16T07:15:54.392Z,22.23
2023-04-16T07:18:26.306Z,22.67
2023-04-16T07:20:58.376Z,22.13
2023-04-16T07:23:29.963Z,22.30
2023-04-16T07:26:01.878Z,20.73
2023-04-16T07:28:34.923Z,21.90
2023-04-16T07:31:07.033Z,21.57
2023-04-16T07:33:39.170Z,20.77
2023-04-16T07:36:12.313Z,21.47
2023-04-16T07:38:43.976Z,21.03
2023-04-16T07:41:15.857Z,21.93
2023-04-16T07:43:49.056Z,21.27
2023-04-16T07:46:21.169Z,20.07
2023-04-16T07:48:52.968Z,20.97
2023-04-16T07:51:24.799Z,20.70
2023-04-16T07:53:56.683Z,19.77
2023-04-16T07:56:28.630Z,20.23
2023-04-16T07:59:14.492Z,20.23
2023-04-16T08:01:53.545Z,20.03
2023-04-16T08:04:26.298Z,19.83
2023-04-16T08:06:58.452Z,20.43
2023-04-16T08:09:31.806Z,20.07
2023-04-16T08:12:05.736Z,20.43
2023-04-16T08:14:38.738Z,21.03
2023-04-16T08:17:10.612Z,20.30
2023-04-16T08:19:43.146Z,20.40
2023-04-16T08:22:16.635Z,19.67
2023-04-16T08:24:48.559Z,19.37
2023-04-16T08:27:20.582Z,19.30
2023-04-16T08:29:53.804Z,19.67
2023-04-16T08:32:27.119Z,20.20
2023-04-16T08:34:59.156Z,18.93
2023-04-16T08:37:30.939Z,18.43
2023-04-16T08:40:03.594Z,18.87
2023-04-16T08:42:46.886Z,19.77
2023-04-16T08:45:21.831Z,19.10
2023-04-16T08:47:54.840Z,18.40
2023-04-16T08:50:30.784Z,18.87
2023-04-16T08:53:07.642Z,18.03
2023-04-16T08:55:47.822Z,19.33
2023-04-16T08:58:23.671Z,19.50
2023-04-16T09:00:57.929Z,19.67
2023-04-16T09:03:31.523Z,19.13
2023-04-16T09:06:05.506Z,19.47
2023-04-16T09:08:41.633Z,19.37
2023-04-16T09:11:14.335Z,18.50
2023-04-16T09:13:46.332Z,19.03
2023-04-16T09:16:21.484Z,19.27
2023-04-16T09:18:55.489Z,18.10
2023-04-16T09:21:27.946Z,19.47
2023-04-16T09:24:00.828Z,18.73
2023-04-16T09:26:33.711Z,17.67
2023-04-16T09:29:05.763Z,18.00
2023-04-16T09:31:38.947Z,18.70
2023-04-16T09:34:13.090Z,18.93
2023-04-16T09:36:44.908Z,18.53
2023-04-16T09:39:24.083Z,18.90
2023-04-16T09:41:58.196Z,18.40
2023-04-16T09:44:40.531Z,18.80
2023-04-16T09:47:14.127Z,17.37
2023-04-16T09:49:49.390Z,18.67
2023-04-16T09:52:24.004Z,18.50
2023-04-16T09:54:57.420Z,20.00
2023-04-16T09:57:30.483Z,19.73
2023-04-16T10:00:10.215Z,20.47
2023-04-16T10:02:45.060Z,20.33
2023-04-16T10:05:20.885Z,21.77
2023-04-16T10:07:54.403Z,21.43
2023-04-16T10:10:27.221Z,22.03
2023-04-16T10:13:00.027Z,22.47
2023-04-16T10:15:31.995Z,21.13
2023-04-16T10:18:06.154Z,22.87
2023-04-16T10:20:38.687Z,22.73
2023-04-16T10:23:12.840Z,25.37
2023-04-16T10:25:48.759Z,23.87
2023-04-16T10:28:20.695Z,25.73
2023-04-16T10:30:54.755Z,25.67
2023-04-16T10:33:32.240Z,25.00
2023-04-16T10:36:12.449Z,26.10
2023-04-16T10:38:48.463Z,25.97
2023-04-16T10:41:21.056Z,24.63
2023-04-16T10:44:05.699Z,26.50
2023-04-16T10:46:43.442Z,25.57
2023-04-16T10:49:27.596Z,27.17
2023-04-16T10:52:03.644Z,25.93
2023-04-16T10:54:39.509Z,28.00
2023-04-16T10:57:18.835Z,26.40
2023-04-16T10:59:52.467Z,26.53
2023-04-16T11:02:29.543Z,26.80
2023-04-16T11:05:04.538Z,27.50
2023-04-16T11:07:49.602Z,26.63
2023-04-16T11:10:21.483Z,24.97
2023-04-16T11:12:55.614Z,26.10
2023-04-16T11:15:31.327Z,27.50
2023-04-16T11:18:04.377Z,28.00
2023-04-16T11:20:42.381Z,28.97
2023-04-16T11:23:16.135Z,26.37
2023-04-16T11:25:48.020Z,26.87
2023-04-16T11:28:19.868Z,26.20
2023-04-16T11:30:51.765Z,27.07
2023-04-16T11:33:23.659Z,25.20
2023-04-16T11:36:02.751Z,27.00
2023-04-16T11:38:43.003Z,27.60
2023-04-16T11:41:22.895Z,28.80
2023-04-16T11:43:55.255Z,27.23
2023-04-16T11:46:38.537Z,28.57
2023-04-16T11:49:10.680Z,27.07
2023-04-16T11:51:48.614Z,27.33
2023-04-16T11:54:27.483Z,28.43
2023-04-16T11:56:59.278Z,29.27
2023-04-16T11:59:31.157Z,26.57
2023-04-16T12:02:03.155Z,27.07
2023-04-16T12:04:36.525Z,28.30
2023-04-16T12:07:17.330Z,27.27
2023-04-16T12:09:49.068Z,24.63
2023-04-16T12:12:35.317Z,26.00
2023-04-16T12:15:08.943Z,27.87
2023-04-16T12:17:41.243Z,26.40
2023-04-16T12:20:16.289Z,25.70
2023-04-16T12:22:55.346Z,27.43
2023-04-16T12:25:29.692Z,27.17
2023-04-16T12:28:02.162Z,28.47
2023-04-16T12:30:34.396Z,28.37
2023-04-16T12:33:22.377Z,29.30
2023-04-16T12:35:54.773Z,29.00
2023-04-16T12:38:27.921Z,31.40
2023-04-16T12:41:02.186Z,31.67
2023-04-16T12:43:34.218Z,31.33
2023-04-16T12:46:06.717Z,29.43
2023-04-16T12:48:38.418Z,30.67
2023-04-16T12:51:10.278Z,31.70
2023-04-16T12:53:43.292Z,32.23
2023-04-16T12:56:15.599Z,32.03
2023-04-16T12:58:50.601Z,31.00
2023-04-16T13:01:24.310Z,31.77
2023-04-16T13:03:56.419Z,32.73
2023-04-16T13:06:28.202Z,31.40
2023-04-16T13:09:01.297Z,29.73
2023-04-16T13:11:33.381Z,30.03
2023-04-16T13:14:05.194Z,32.30
2023-04-16T13:16:38.709Z,31.50
2023-04-16T13:19:10.713Z,32.13
2023-04-16T13:21:42.770Z,31.70
2023-04-16T13:24:15.740Z,30.63
2023-04-16T13:26:47.577Z,30.67
2023-04-16T13:29:19.443Z,31.17
2023-04-16T13:31:52.472Z,30.23
2023-04-16T13:34:25.338Z,29.67
2023-04-16T13:36:57.209Z,28.23
2023-04-16T13:39:30.759Z,29.47
2023-04-16T13:42:02.705Z,26.00
2023-04-16T13:44:34.563Z,24.50
2023-04-16T13:47:06.555Z,24.60
2023-04-16T13:49:38.585Z,25.07
2023-04-16T13:52:10.641Z,23.57
2023-04-16T13:54:43.885Z,23.57
2023-04-16T13:57:15.884Z,22.77
2023-04-16T13:59:49.151Z,20.63
2023-04-16T14:02:22.049Z,17.47
2023-04-16T14:04:53.895Z,17.50
2023-04-16T14:07:27.200Z,15.80
2023-04-16T14:10:00.232Z,15.47
2023-04-16T14:12:32.598Z,13.80
2023-04-16T14:15:09.146Z,14.50
2023-04-16T14:17:41.196Z,14.53
2023-04-16T14:20:11.650Z,14.60
2023-04-16T14:22:44.190Z,15.70
2023-04-16T14:25:17.569Z,15.00
2023-04-16T14:27:49.507Z,15.20
2023-04-16T14:30:21.367Z,15.10
2023-04-16T14:32:53.704Z,15.00
2023-04-16T14:35:26.520Z,14.80
2023-04-16T14:37:58.870Z,13.90
2023-04-16T14:40:31.798Z,13.10
2023-04-16T14:43:03.719Z,13.13
2023-04-16T14:45:38.248Z,11.97
2023-04-16T14:48:12.004Z,13.20
2023-04-16T14:50:44.413Z,12.30
2023-04-16T14:53:16.764Z,12.30
2023-04-16T14:55:49.958Z,12.53
2023-04-16T14:58:21.822Z,13.37
2023-04-16T15:00:53.881Z,13.73
2023-04-16T15:03:28.630Z,14.67
2023-04-16T15:06:00.432Z,13.93
2023-04-16T15:08:32.418Z,14.50
2023-04-16T15:11:05.766Z,13.37
2023-04-16T15:13:39.386Z,12.73
2023-04-16T15:16:11.383Z,13.07
2023-04-16T15:18:43.092Z,13.67
2023-04-16T15:21:15.076Z,12.27
2023-04-16T15:23:47.133Z,12.83
2023-04-16T15:26:20.152Z,12.83
2023-04-16T15:28:53.409Z,12.93
2023-04-16T15:31:25.849Z,12.80
2023-04-16T15:34:00.737Z,12.63
2023-04-16T15:36:32.653Z,12.77
2023-04-16T15:39:05.296Z,13.70
2023-04-16T15:41:47.221Z,12.37
2023-04-16T15:44:29.210Z,10.70
2023-04-16T15:47:01.220Z,10.47
2023-04-16T15:49:34.489Z,10.80
2023-04-16T15:52:06.964Z,10.40
2023-04-16T15:54:38.908Z,10.90
2023-04-16T15:57:12.148Z,9.67
2023-04-16T15:59:52.853Z,8.53
2023-04-16T16:02:35.986Z,8.63
2023-04-16T16:05:12.751Z,9.07
2023-04-16T16:07:46.405Z,8.00
2023-04-16T16:10:18.873Z,8.00
2023-04-16T16:12:52.718Z,7.97
2023-04-16T16:15:26.103Z,8.03
2023-04-16T16:17:58.653Z,8.20
2023-04-16T16:20:30.945Z,7.37
2023-04-16T16:23:02.791Z,7.43
2023-04-16T16:25:34.746Z,6.77
2023-04-16T16:28:08.084Z,6.57
2023-04-16T16:30:40.700Z,7.30
2023-04-16T16:33:14.391Z,6.77
2023-04-16T16:35:46.042Z,7.30
2023-04-16T16:38:18.030Z,7.40
2023-04-16T16:40:49.878Z,6.90
2023-04-16T16:43:23.027Z,6.70
2023-04-16T16:45:54.628Z,7.03
2023-04-16T16:48:28.015Z,7.30
2023-04-16T16:50:59.982Z,6.30
2023-04-16T16:53:31.852Z,7.13
2023-04-16T16:56:03.693Z,6.40
2023-04-16T16:58:36.894Z,7.17
2023-04-16T17:01:08.809Z,6.37
2023-04-16T17:03:40.544Z,6.23
2023-04-16T17:06:14.336Z,6.83
2023-04-16T17:08:47.402Z,6.80
2023-04-16T17:11:19.859Z,6.43
2023-04-16T17:13:52.786Z,7.07
2023-04-16T17:16:24.788Z,6.93
2023-04-16T17:18:57.124Z,7.93
2023-04-16T17:21:29.013Z,7.47
2023-04-16T17:24:00.986Z,7.60
2023-04-16T17:26:32.913Z,8.57
2023-04-16T17:29:06.169Z,7.73
2023-04-16T17:31:38.586Z,7.90
2023-04-16T17:34:10.688Z,7.80
2023-04-16T17:36:42.459Z,8.00
2023-04-16T17:39:14.502Z,7.90
2023-04-16T17:41:46.400Z,8.20
2023-04-16T17:44:19.411Z,8.70
2023-04-16T17:46:52.686Z,9.57
2023-04-16T17:49:24.652Z,10.33
2023-04-16T17:51:57.375Z,9.90
2023-04-16T17:54:29.501Z,9.80
2023-04-16T17:57:02.070Z,9.40
2023-04-16T17:59:35.914Z,10.63
2023-04-16T18:02:08.341Z,11.00
2023-04-16T18:04:40.654Z,10.73
2023-04-16T18:07:12.709Z,10.53
2023-04-16T18:09:44.661Z,10.80
2023-04-16T18:12:16.522Z,11.10
2023-04-16T18:14:49.678Z,11.10
2023-04-16T18:17:22.784Z,11.37
2023-04-16T18:19:54.458Z,10.23
2023-04-16T18:22:28.206Z,10.90
2023-04-16T18:25:01.706Z,11.57
2023-04-16T18:27:31.744Z,10.93
2023-04-16T18:30:05.152Z,10.70
2023-04-16T18:32:37.644Z,10.43
2023-04-16T18:35:10.208Z,11.40
2023-04-16T18:37:42.102Z,11.63
2023-04-16T18:40:15.433Z,11.00
2023-04-16T18:42:47.474Z,11.03
2023-04-16T18:45:21.983Z,11.10
2023-04-16T18:47:53.835Z,11.30
2023-04-16T18:50:25.692Z,11.53
2023-04-16T18:52:57.665Z,10.77
2023-04-16T18:55:30.108Z,10.13
2023-04-16T18:58:03.382Z,12.37
2023-04-16T19:00:36.400Z,11.93
2023-04-16T19:03:09.781Z,10.63
2023-04-16T19:05:41.598Z,11.83
2023-04-16T19:08:13.420Z,10.40
2023-04-16T19:10:47.290Z,10.50
2023-04-16T19:13:20.239Z,10.60
2023-04-16T19:15:58.023Z,10.70
2023-04-16T19:18:29.798Z,10.70
2023-04-16T19:21:04.593Z,10.77
2023-04-16T19:23:36.513Z,11.07
2023-04-16T19:26:08.346Z,10.57
2023-04-16T19:28:42.414Z,10.80
2023-04-16T19:31:15.583Z,11.07
2023-04-16T19:33:47.282Z,10.13
2023-04-16T19:36:19.179Z,11.07
2023-04-16T19:38:51.249Z,10.77
2023-04-16T19:41:23.180Z,10.60
2023-04-16T19:43:57.139Z,12.10
2023-04-16T19:46:30.396Z,10.93
2023-04-16T19:49:02.302Z,10.83
2023-04-16T19:51:34.697Z,10.93
2023-04-16T19:54:06.797Z,11.40
2023-04-16T19:56:38.364Z,10.40
2023-04-16T19:59:10.468Z,11.93
2023-04-16T20:01:43.680Z,11.90
2023-04-16T20:04:15.893Z,11.30
2023-04-16T20:06:47.502Z,11.27
2023-04-16T20:09:20.171Z,11.67
2023-04-16T20:11:51.898Z,11.40
2023-04-16T20:14:23.721Z,11.57
2023-04-16T20:16:57.026Z,11.73
2023-04-16T20:19:33.633Z,11.77
2023-04-16T20:22:06.523Z,10.97
2023-04-16T20:24:38.585Z,10.83
2023-04-16T20:27:10.402Z,11.37
2023-04-16T20:29:42.361Z,11.07
2023-04-16T20:32:15.632Z,11.00
2023-04-16T20:34:48.783Z,12.37
2023-04-16T20:37:20.500Z,12.43
2023-04-16T20:39:54.047Z,11.37
2023-04-16T20:42:26.302Z,13.10
2023-04-16T20:45:00.686Z,12.63
2023-04-16T20:47:34.840Z,12.90
2023-04-16T20:50:07.256Z,12.03
2023-04-16T20:52:38.791Z,13.00
2023-04-16T20:55:10.969Z,12.60
2023-04-16T20:57:42.812Z,11.97
2023-04-16T21:00:16.830Z,13.03
2023-04-16T21:02:49.920Z,12.70
2023-04-16T21:05:21.639Z,13.47
2023-04-16T21:07:55.711Z,13.50
2023-04-16T21:10:27.750Z,13.90
2023-04-16T21:12:59.634Z,13.90
2023-04-16T21:15:31.781Z,14.43
2023-04-16T21:18:05.559Z,14.10
2023-04-16T21:20:38.062Z,13.93
2023-04-16T21:23:10.315Z,13.20
2023-04-16T21:25:42.148Z,15.20
2023-04-16T21:28:13.985Z,14.17
2023-04-16T21:30:46.251Z,14.90
2023-04-16T21:33:19.447Z,15.10
2023-04-16T21:35:55.940Z,14.93
2023-04-16T21:38:27.799Z,15.10
2023-04-16T21:40:59.634Z,15.17
2023-04-16T21:43:32.099Z,15.20
2023-04-16T21:46:04.278Z,14.67
2023-04-16T21:48:37.224Z,14.77
2023-04-16T21:51:09.988Z,15.77
2023-04-16T21:53:41.846Z,15.53
2023-04-16T21:56:13.717Z,14.67
2023-04-16T21:58:45.558Z,15.50
2023-04-16T22:01:17.577Z,15.20
2023-04-16T22:03:51.985Z,14.97
2023-04-16T22:06:24.237Z,14.50
2023-04-16T22:08:58.775Z,13.97
2023-04-16T22:11:30.579Z,14.63
2023-04-16T22:14:08.046Z,14.60
2023-04-16T22:16:40.147Z,13.83
2023-04-16T22:19:14.056Z,14.37
2023-04-16T22:21:45.737Z,14.20
2023-04-16T22:24:17.528Z,15.23
2023-04-16T22:26:49.417Z,13.77
2023-04-16T22:29:21.285Z,14.87
2023-04-16T22:31:53.279Z,14.93
2023-04-16T22:34:26.207Z,14.27
2023-04-16T22:36:58.055Z,14.50
2023-04-16T22:39:30.082Z,14.97
2023-04-16T22:42:01.904Z,14.10
2023-04-16T22:44:33.715Z,14.00
2023-04-16T22:47:05.631Z,14.97
2023-04-16T22:49:38.708Z,14.57
2023-04-16T22:52:10.318Z,14.90
2023-04-16T22:54:42.125Z,14.60
2023-04-16T22:57:14.320Z,14.80
2023-04-16T22:59:46.222Z,15.07
2023-04-16T23:02:17.923Z,14.47
2023-04-16T23:04:51.234Z,14.87
2023-04-16T23:07:23.101Z,14.90
2023-04-16T23:09:54.864Z,13.87
2023-04-16T23:12:26.697Z,15.00
2023-04-16T23:15:00.365Z,14.43
2023-04-16T23:17:32.858Z,14.33
2023-04-16T23:20:07.563Z,15.33
2023-04-16T23:22:39.581Z,14.60
2023-04-16T23:25:13.373Z,14.50
2023-04-16T23:27:45.225Z,14.47
2023-04-16T23:30:18.010Z,15.53
2023-04-16T23:32:49.978Z,14.77
2023-04-16T23:35:23.262Z,13.77
2023-04-16T23:37:54.873Z,14.83
2023-04-16T23:40:26.785Z,14.23
2023-04-16T23:42:58.601Z,15.53
2023-04-16T23:45:30.491Z,14.73
2023-04-16T23:48:02.507Z,15.23
2023-04-16T23:50:35.812Z,14.93
2023-04-16T23:53:07.633Z,15.37
2023-04-16T23:55:40.179Z,14.97
2023-04-16T23:58:12.011Z,15.17
